Time,TemperatureF,DewpointF,PressureIn,WindDirection,WindDirectionDegrees,WindSpeedMPH,WindSpeedGustMPH,Humidity,HourlyPrecipIn,Conditions,Clouds,dailyrainin,SolarRadiationWatts/m^2,SoftwareType,DateUTC
2013-09-05 00:01:00,85.0,69.0,-100.00,SSE,161,2.0,6.0,58,0.00,,,0.03,1.000000,,2013-09-05 07:01:00,
2013-09-05 00:12:00,85.0,69.0,-100.00,SSE,161,2.0,6.0,58,0.00,,,0.03,1.000000,,2013-09-05 07:12:00,
2013-09-05 00:42:00,83.0,69.0,-100.00,SW,224,0.0,0.0,63,0.00,,,0.03,1.000000,,2013-09-05 07:42:00,
2013-09-05 00:52:00,83.0,69.0,-100.00,SW,224,0.0,0.0,63,0.00,,,0.03,1.000000,,2013-09-05 07:52:00,
2013-09-05 01:03:00,83.0,69.0,-100.00,SW,224,0.0,0.0,63,0.00,,,0.03,1.000000,,2013-09-05 08:03:00,
2013-09-05 01:12:00,83.0,69.0,-100.00,SW,224,0.0,0.0,63,0.00,,,0.03,1.000000,,2013-09-05 08:12:00,
2013-09-05 01:42:00,82.0,71.0,-100.00,West,264,0.0,4.0,69,0.00,,,0.03,1.000000,,2013-09-05 08:42:00,
2013-09-05 01:52:00,82.0,71.0,-100.00,West,264,0.0,4.0,69,0.00,,,0.03,1.000000,,2013-09-05 08:52:00,
2013-09-05 02:02:00,82.0,71.0,-100.00,West,264,0.0,4.0,69,0.00,,,0.03,1.000000,,2013-09-05 09:02:00,
2013-09-05 02:11:00,82.0,71.0,-100.00,West,264,0.0,4.0,69,0.00,,,0.03,1.000000,,2013-09-05 09:11:00,
2013-09-05 02:43:00,82.0,71.0,-100.00,SW,229,0.0,0.0,70,0.00,,,0.03,1.000000,,2013-09-05 09:43:00,
2013-09-05 02:54:00,82.0,71.0,-100.00,SW,229,0.0,0.0,70,0.00,,,0.03,1.000000,,2013-09-05 09:54:00,
2013-09-05 03:03:00,82.0,71.0,-100.00,SW,229,0.0,0.0,70,0.00,,,0.03,1.000000,,2013-09-05 10:03:00,
2013-09-05 03:12:00,82.0,71.0,-100.00,SW,229,0.0,0.0,70,0.00,,,0.03,1.000000,,2013-09-05 10:12:00,
2013-09-05 03:43:00,81.0,72.0,-100.00,SW,222,0.0,0.0,75,0.00,,,0.03,1.000000,,2013-09-05 10:43:00,
2013-09-05 03:53:00,81.0,72.0,-100.00,SW,222,0.0,0.0,75,0.00,,,0.03,1.000000,,2013-09-05 10:53:00,
2013-09-05 04:03:00,81.0,72.0,-100.00,SW,222,0.0,0.0,75,0.00,,,0.03,1.000000,,2013-09-05 11:03:00,
2013-09-05 04:12:00,81.0,72.0,-100.00,SW,222,0.0,0.0,75,0.00,,,0.03,1.000000,,2013-09-05 11:12:00,
2013-09-05 04:43:00,80.0,71.0,-100.00,SSW,206,0.0,0.0,75,0.00,,,-99.99,1.000000,,2013-09-05 11:43:00,
2013-09-05 04:52:00,80.0,71.0,-100.00,SSW,206,0.0,0.0,75,0.00,,,-99.99,1.000000,,2013-09-05 11:52:00,
2013-09-05 05:01:00,80.0,71.0,-100.00,SSW,206,0.0,0.0,75,0.00,,,-99.99,1.000000,,2013-09-05 12:01:00,
2013-09-05 05:12:00,80.0,71.0,-100.00,SSW,206,0.0,0.0,75,0.00,,,-99.99,1.000000,,2013-09-05 12:12:00,
2013-09-05 05:42:00,80.0,72.0,-100.00,SE,142,0.0,0.0,76,0.00,,,0.03,1.000000,,2013-09-05 12:42:00,
2013-09-05 05:52:00,80.0,72.0,-100.00,SE,142,0.0,0.0,76,0.00,,,0.03,1.000000,,2013-09-05 12:52:00,
2013-09-05 06:01:00,80.0,72.0,-100.00,SE,142,0.0,0.0,76,0.00,,,0.03,1.000000,,2013-09-05 13:01:00,
2013-09-05 06:12:00,80.0,72.0,-100.00,SE,142,0.0,0.0,76,0.00,,,0.03,1.000000,,2013-09-05 13:12:00,
2013-09-05 06:42:00,80.0,73.0,-100.00,South,177,0.0,0.0,78,0.00,,,0.03,1.000000,,2013-09-05 13:42:00,
2013-09-05 06:53:00,80.0,73.0,-100.00,South,177,0.0,0.0,78,0.00,,,0.03,1.000000,,2013-09-05 13:53:00,
2013-09-05 07:01:00,80.0,73.0,-100.00,South,177,0.0,0.0,78,0.00,,,0.03,1.000000,,2013-09-05 14:01:00,
2013-09-05 07:12:00,80.0,73.0,-100.00,South,177,0.0,0.0,78,0.00,,,0.03,1.000000,,2013-09-05 14:12:00,
2013-09-05 07:42:00,82.0,72.0,-100.00,West,274,0.0,0.0,73,0.00,,,0.03,40.000000,,2013-09-05 14:42:00,
2013-09-05 07:52:00,82.0,72.0,-100.00,West,274,0.0,0.0,73,0.00,,,0.03,40.000000,,2013-09-05 14:52:00,
2013-09-05 08:02:00,82.0,72.0,-100.00,West,274,0.0,0.0,73,0.00,,,0.03,40.000000,,2013-09-05 15:02:00,
2013-09-05 08:11:00,82.0,72.0,-100.00,West,274,0.0,0.0,73,0.00,,,0.03,40.000000,,2013-09-05 15:11:00,
2013-09-05 08:44:00,83.0,73.0,-100.00,WSW,247,0.0,0.0,71,0.00,,,0.03,122.000000,,2013-09-05 15:44:00,
2013-09-05 08:54:00,83.0,73.0,-100.00,WSW,247,0.0,0.0,71,0.00,,,0.03,122.000000,,2013-09-05 15:54:00,
2013-09-05 09:03:00,83.0,73.0,-100.00,WSW,247,0.0,0.0,71,0.00,,,0.03,122.000000,,2013-09-05 16:03:00,
2013-09-05 09:13:00,83.0,73.0,-100.00,WSW,247,0.0,0.0,71,0.00,,,0.03,122.000000,,2013-09-05 16:13:00,
2013-09-05 09:43:00,87.0,71.0,-100.00,West,271,0.0,0.0,60,0.00,,,0.00,146.000000,,2013-09-05 16:43:00,
2013-09-05 09:54:00,87.0,71.0,-100.00,West,271,0.0,0.0,60,0.00,,,0.00,146.000000,,2013-09-05 16:54:00,
2013-09-05 10:03:00,87.0,71.0,-100.00,West,271,0.0,0.0,60,0.00,,,0.00,146.000000,,2013-09-05 17:03:00,
2013-09-05 10:12:00,87.0,71.0,-100.00,West,271,0.0,0.0,60,0.00,,,0.00,146.000000,,2013-09-05 17:12:00,
2013-09-05 10:43:00,90.0,70.0,-100.00,WNW,301,8.0,12.0,52,0.00,,,0.00,219.000000,,2013-09-05 17:43:00,
2013-09-05 10:52:00,90.0,70.0,-100.00,WNW,301,8.0,12.0,52,0.00,,,0.00,219.000000,,2013-09-05 17:52:00,
2013-09-05 11:02:00,90.0,70.0,-100.00,WNW,301,8.0,12.0,52,0.00,,,0.00,219.000000,,2013-09-05 18:02:00,
2013-09-05 11:12:00,90.0,70.0,-100.00,WNW,301,8.0,12.0,52,0.00,,,0.00,219.000000,,2013-09-05 18:12:00,
2013-09-05 11:43:00,96.0,68.0,-100.00,SW,235,4.0,11.0,40,0.00,,,0.00,570.000000,,2013-09-05 18:43:00,
2013-09-05 11:52:00,96.0,68.0,-100.00,SW,235,4.0,11.0,40,0.00,,,0.00,570.000000,,2013-09-05 18:52:00,
2013-09-05 12:01:00,96.0,68.0,-100.00,SW,235,4.0,11.0,40,0.00,,,0.00,570.000000,,2013-09-05 19:01:00,
2013-09-05 12:11:00,96.0,68.0,-100.00,SW,235,4.0,11.0,40,0.00,,,0.00,570.000000,,2013-09-05 19:11:00,
2013-09-05 12:42:00,100.0,67.0,-100.00,NNE,33,2.0,6.0,34,0.00,,,0.00,539.000000,,2013-09-05 19:42:00,
2013-09-05 12:52:00,100.0,67.0,-100.00,NNE,33,2.0,6.0,34,0.00,,,0.00,539.000000,,2013-09-05 19:52:00,
2013-09-05 13:03:00,100.0,67.0,-100.00,NNE,33,2.0,6.0,34,0.00,,,0.00,539.000000,,2013-09-05 20:03:00,
2013-09-05 13:11:00,100.0,67.0,-100.00,NNE,33,2.0,6.0,34,0.00,,,0.00,539.000000,,2013-09-05 20:11:00,
2013-09-05 13:43:00,104.0,64.0,-100.00,NNW,348,5.0,8.0,28,0.00,,,0.00,817.000000,,2013-09-05 20:43:00,
2013-09-05 13:52:00,104.0,64.0,-100.00,NNW,348,5.0,8.0,28,0.00,,,0.00,817.000000,,2013-09-05 20:52:00,
2013-09-05 14:02:00,104.0,64.0,-100.00,NNW,348,5.0,8.0,28,0.00,,,0.00,817.000000,,2013-09-05 21:02:00,
2013-09-05 14:11:00,104.0,64.0,-100.00,NNW,348,5.0,8.0,28,0.00,,,0.00,817.000000,,2013-09-05 21:11:00,
2013-09-05 14:44:00,108.0,62.0,-100.00,NW,308,3.0,11.0,23,0.00,,,0.00,872.000000,,2013-09-05 21:44:00,
2013-09-05 14:54:00,108.0,62.0,-100.00,NW,308,3.0,11.0,23,0.00,,,0.00,872.000000,,2013-09-05 21:54:00,
2013-09-05 15:04:00,108.0,62.0,-100.00,NW,308,3.0,11.0,23,0.00,,,0.00,872.000000,,2013-09-05 22:04:00,
2013-09-05 15:13:00,108.0,62.0,-100.00,NW,308,3.0,11.0,23,0.00,,,0.00,872.000000,,2013-09-05 22:13:00,
2013-09-05 15:43:00,109.0,60.0,-100.00,NNW,337,4.0,9.0,21,0.00,,,0.00,775.000000,,2013-09-05 22:43:00,
2013-09-05 15:53:00,109.0,60.0,-100.00,NNW,337,4.0,9.0,21,0.00,,,0.00,775.000000,,2013-09-05 22:53:00,
2013-09-05 16:02:00,109.0,60.0,-100.00,NNW,337,4.0,9.0,21,0.00,,,0.00,775.000000,,2013-09-05 23:02:00,
2013-09-05 16:12:00,109.0,60.0,-100.00,NNW,337,4.0,9.0,21,0.00,,,0.00,775.000000,,2013-09-05 23:12:00,
2013-09-05 16:42:00,110.0,55.0,-100.00,NW,321,4.0,9.0,17,0.00,,,0.00,614.000000,,2013-09-05 23:42:00,
2013-09-05 16:53:00,110.0,55.0,-100.00,NW,321,4.0,9.0,17,0.00,,,0.00,614.000000,,2013-09-05 23:53:00,
2013-09-05 17:01:00,110.0,55.0,-100.00,NW,321,4.0,9.0,17,0.00,,,0.00,614.000000,,2013-09-06 00:01:00,
2013-09-05 17:12:00,110.0,55.0,-100.00,NW,321,4.0,9.0,17,0.00,,,0.00,614.000000,,2013-09-06 00:12:00,
2013-09-05 17:42:00,109.0,54.0,-100.00,West,280,6.0,10.0,17,0.00,,,0.00,418.000000,,2013-09-06 00:42:00,
2013-09-05 17:52:00,109.0,54.0,-100.00,West,280,6.0,10.0,17,0.00,,,0.00,418.000000,,2013-09-06 00:52:00,
2013-09-05 18:01:00,109.0,54.0,-100.00,West,280,6.0,10.0,17,0.00,,,0.00,418.000000,,2013-09-06 01:01:00,
2013-09-05 18:11:00,109.0,54.0,-100.00,West,280,6.0,10.0,17,0.00,,,0.00,418.000000,,2013-09-06 01:11:00,
2013-09-05 18:42:00,108.0,55.0,-100.00,WNW,295,6.0,9.0,18,0.00,,,0.00,203.000000,,2013-09-06 01:42:00,
2013-09-05 18:52:00,108.0,55.0,-100.00,WNW,295,6.0,9.0,18,0.00,,,0.00,203.000000,,2013-09-06 01:52:00,
2013-09-05 19:02:00,108.0,55.0,-100.00,WNW,295,6.0,9.0,18,0.00,,,0.00,203.000000,,2013-09-06 02:02:00,
2013-09-05 19:11:00,108.0,55.0,-100.00,WNW,295,6.0,9.0,18,0.00,,,0.00,203.000000,,2013-09-06 02:11:00,
2013-09-05 19:42:00,101.0,60.0,-100.00,WSW,258,7.0,11.0,26,0.00,,,0.00,19.000000,,2013-09-06 02:42:00,
2013-09-05 19:52:00,101.0,60.0,-100.00,WSW,258,7.0,11.0,26,0.00,,,0.00,19.000000,,2013-09-06 02:52:00,
2013-09-05 20:02:00,101.0,60.0,-100.00,WSW,258,7.0,11.0,26,0.00,,,0.00,19.000000,,2013-09-06 03:02:00,
2013-09-05 20:11:00,101.0,60.0,-100.00,WSW,258,7.0,11.0,26,0.00,,,0.00,19.000000,,2013-09-06 03:11:00,
2013-09-05 20:44:00,98.0,61.0,-100.00,WNW,291,5.0,8.0,30,0.00,,,0.00,1.000000,,2013-09-06 03:44:00,
2013-09-05 20:55:00,98.0,61.0,-100.00,WNW,291,5.0,8.0,30,0.00,,,0.00,1.000000,,2013-09-06 03:55:00,
2013-09-05 21:04:00,98.0,61.0,-100.00,WNW,291,5.0,8.0,30,0.00,,,0.00,1.000000,,2013-09-06 04:04:00,
2013-09-05 21:13:00,98.0,61.0,-100.00,WNW,291,5.0,8.0,30,0.00,,,0.00,1.000000,,2013-09-06 04:13:00,
2013-09-05 21:44:00,96.0,61.0,-100.00,WNW,292,8.0,12.0,32,0.00,,,0.00,1.000000,,2013-09-06 04:44:00,
2013-09-05 21:54:00,96.0,61.0,-100.00,WNW,292,8.0,12.0,32,0.00,,,0.00,1.000000,,2013-09-06 04:54:00,
2013-09-05 22:03:00,96.0,61.0,-100.00,WNW,292,8.0,12.0,32,0.00,,,0.00,1.000000,,2013-09-06 05:03:00,
2013-09-05 22:12:00,96.0,61.0,-100.00,WNW,292,8.0,12.0,32,0.00,,,0.00,1.000000,,2013-09-06 05:12:00,
2013-09-05 22:43:00,94.0,61.0,-100.00,NW,311,5.0,10.0,34,0.00,,,0.00,1.000000,,2013-09-06 05:43:00,
2013-09-05 22:52:00,94.0,61.0,-100.00,NW,311,5.0,10.0,34,0.00,,,0.00,1.000000,,2013-09-06 05:52:00,
2013-09-05 23:02:00,94.0,61.0,-100.00,NW,311,5.0,10.0,34,0.00,,,0.00,1.000000,,2013-09-06 06:02:00,
2013-09-05 23:11:00,94.0,61.0,-100.00,NW,311,5.0,10.0,34,0.00,,,0.00,1.000000,,2013-09-06 06:11:00,
2013-09-05 23:42:00,92.0,61.0,-100.00,WSW,250,2.0,7.0,36,0.00,,,0.00,1.000000,,2013-09-06 06:42:00,
2013-09-05 23:53:00,92.0,61.0,-100.00,WSW,250,2.0,7.0,36,0.00,,,0.00,1.000000,,2013-09-06 06:53:00,